Time,TemperatureF,DewpointF,PressureIn,WindDirection,WindDirectionDegrees,WindSpeedMPH,WindSpeedGustMPH,Humidity,HourlyPrecipIn,Conditions,Clouds,dailyrainin,SoftwareType,DateUTC
2013-06-29 00:01:00,72.0,56.0,-100.00,NW,320,6.0,10.0,58,0.00,,,-99.99,,2013-06-29 05:01:00,
2013-06-29 00:11:00,72.0,57.0,-100.00,NW,310,6.0,11.0,58,0.00,,,-99.99,,2013-06-29 05:11:00,
2013-06-29 00:21:00,72.0,57.0,-100.00,NW,305,6.0,12.0,59,0.00,,,-99.99,,2013-06-29 05:21:00,
2013-06-29 00:31:00,72.0,57.0,-100.00,NW,305,6.0,12.0,59,0.00,,,-99.99,,2013-06-29 05:31:00,
2013-06-29 00:41:00,70.0,57.0,-100.00,WNW,295,7.0,9.0,62,0.00,,,-99.99,,2013-06-29 05:41:00,
2013-06-29 00:51:00,70.0,57.0,-100.00,WNW,300,7.0,11.0,62,0.00,,,-99.99,,2013-06-29 05:51:00,
2013-06-29 01:01:00,71.0,57.0,-100.00,NW,310,9.0,13.0,62,0.00,,,-99.99,,2013-06-29 06:01:00,
2013-06-29 01:12:00,71.0,57.0,-100.00,NW,310,9.0,13.0,62,0.00,,,-99.99,,2013-06-29 06:12:00,
2013-06-29 01:22:00,71.0,57.0,-100.00,NW,310,9.0,16.0,60,0.00,,,-99.99,,2013-06-29 06:22:00,
2013-06-29 01:33:00,71.0,57.0,-100.00,WNW,300,9.0,15.0,60,0.00,,,-99.99,,2013-06-29 06:33:00,
2013-06-29 01:43:00,71.0,57.0,-100.00,NNW,330,9.0,15.0,60,0.00,,,-99.99,,2013-06-29 06:43:00,
2013-06-29 01:53:00,71.0,57.0,-100.00,WNW,300,9.0,15.0,60,0.00,,,-99.99,,2013-06-29 06:53:00,
2013-06-29 02:02:00,71.0,57.0,-100.00,WNW,300,9.0,15.0,60,0.00,,,-99.99,,2013-06-29 07:02:00,
2013-06-29 02:12:00,71.0,57.0,-100.00,NW,325,7.0,15.0,60,0.00,,,-99.99,,2013-06-29 07:12:00,
2013-06-29 02:22:00,71.0,57.0,-100.00,NW,325,7.0,15.0,60,0.00,,,-99.99,,2013-06-29 07:22:00,
2013-06-29 02:33:00,71.0,57.0,-100.00,NNW,335,6.0,16.0,62,0.00,,,-99.99,,2013-06-29 07:33:00,
2013-06-29 02:43:00,71.0,57.0,-100.00,NNW,335,6.0,16.0,62,0.00,,,-99.99,,2013-06-29 07:43:00,
2013-06-29 03:01:00,70.0,57.0,-100.00,NW,310,6.0,13.0,64,0.00,,,-99.99,,2013-06-29 08:01:00,
2013-06-29 03:12:00,69.0,58.0,-100.00,NW,305,7.0,14.0,66,0.00,,,-99.99,,2013-06-29 08:12:00,
2013-06-29 03:22:00,69.0,58.0,-100.00,NW,305,7.0,14.0,66,0.00,,,-99.99,,2013-06-29 08:22:00,
2013-06-29 03:33:00,69.0,58.0,-100.00,WNW,300,8.0,12.0,68,0.00,,,-99.99,,2013-06-29 08:33:00,
2013-06-29 03:43:00,68.0,58.0,-100.00,NW,305,7.0,12.0,69,0.00,,,-99.99,,2013-06-29 08:43:00,
2013-06-29 03:52:00,68.0,58.0,-100.00,NW,305,7.0,12.0,69,0.00,,,-99.99,,2013-06-29 08:52:00,
2013-06-29 04:02:00,68.0,58.0,-100.00,NW,305,7.0,12.0,69,0.00,,,-99.99,,2013-06-29 09:02:00,
2013-06-29 04:12:00,68.0,58.0,-100.00,NW,320,9.0,15.0,71,0.00,,,-99.99,,2013-06-29 09:12:00,
2013-06-29 04:22:00,68.0,58.0,-100.00,NW,305,9.0,15.0,72,0.00,,,-99.99,,2013-06-29 09:22:00,
2013-06-29 04:33:00,68.0,58.0,-100.00,NW,305,9.0,15.0,72,0.00,,,-99.99,,2013-06-29 09:33:00,
2013-06-29 04:42:00,68.0,58.0,-100.00,NW,305,9.0,15.0,72,0.00,,,-99.99,,2013-06-29 09:42:00,
2013-06-29 05:01:00,67.0,59.0,-100.00,WNW,295,6.0,11.0,75,0.00,,,-99.99,,2013-06-29 10:01:00,
2013-06-29 05:11:00,66.0,59.0,-100.00,NW,310,7.0,12.0,77,0.00,,,-99.99,,2013-06-29 10:11:00,
2013-06-29 05:22:00,66.0,59.0,-100.00,NW,310,7.0,12.0,77,0.00,,,-99.99,,2013-06-29 10:22:00,
2013-06-29 05:33:00,66.0,60.0,-100.00,NW,305,9.0,12.0,78,0.00,,,-99.99,,2013-06-29 10:33:00,
2013-06-29 05:43:00,66.0,60.0,-100.00,NW,305,9.0,12.0,78,0.00,,,-99.99,,2013-06-29 10:43:00,
2013-06-29 05:52:00,66.0,60.0,-100.00,NW,305,9.0,12.0,78,0.00,,,-99.99,,2013-06-29 10:52:00,
2013-06-29 06:02:00,66.0,60.0,-100.00,NW,305,9.0,12.0,78,0.00,,,-99.99,,2013-06-29 11:02:00,
2013-06-29 06:11:00,66.0,60.0,-100.00,NW,315,10.0,14.0,79,0.00,,,-99.99,,2013-06-29 11:11:00,
2013-06-29 06:23:00,66.0,60.0,-100.00,NW,315,10.0,14.0,79,0.00,,,-99.99,,2013-06-29 11:23:00,
2013-06-29 06:33:00,66.0,60.0,-100.00,NW,315,10.0,14.0,79,0.00,,,-99.99,,2013-06-29 11:33:00,
2013-06-29 06:43:00,66.0,60.0,-100.00,NW,315,10.0,14.0,79,0.00,,,-99.99,,2013-06-29 11:43:00,
2013-06-29 06:53:00,66.0,60.0,-100.00,NW,315,9.0,14.0,80,0.00,,,-99.99,,2013-06-29 11:53:00,
2013-06-29 07:02:00,66.0,60.0,-100.00,NW,315,9.0,14.0,80,0.00,,,-99.99,,2013-06-29 12:02:00,
2013-06-29 07:12:00,67.0,60.0,-100.00,NW,310,12.0,20.0,79,0.00,,,-99.99,,2013-06-29 12:12:00,
2013-06-29 07:22:00,67.0,61.0,-100.00,NW,315,11.0,20.0,78,0.00,,,-99.99,,2013-06-29 12:22:00,
2013-06-29 07:34:00,67.0,61.0,-100.00,NNW,340,8.0,18.0,78,0.00,,,-99.99,,2013-06-29 12:34:00,
2013-06-29 07:43:00,67.0,60.0,-100.00,NNW,330,9.0,17.0,78,0.00,,,-99.99,,2013-06-29 12:43:00,
2013-06-29 07:53:00,67.0,60.0,-100.00,NNW,330,9.0,17.0,78,0.00,,,-99.99,,2013-06-29 12:53:00,
2013-06-29 08:23:00,68.0,61.0,-100.00,NNW,335,8.0,15.0,78,0.00,,,-99.99,,2013-06-29 13:23:00,
2013-06-29 08:43:00,70.0,62.0,-100.00,WNW,290,11.0,19.0,75,0.00,,,-99.99,,2013-06-29 13:43:00,
2013-06-29 08:53:00,71.0,62.0,-100.00,NW,325,9.0,16.0,75,0.00,,,-99.99,,2013-06-29 13:53:00,
2013-06-29 09:02:00,71.0,62.0,-100.00,NW,310,12.0,21.0,74,0.00,,,-99.99,,2013-06-29 14:02:00,
2013-06-29 09:12:00,71.0,62.0,-100.00,NW,310,12.0,21.0,74,0.00,,,-99.99,,2013-06-29 14:12:00,
2013-06-29 09:23:00,72.0,62.0,-100.00,NW,310,9.0,18.0,72,0.00,,,-99.99,,2013-06-29 14:23:00,
2013-06-29 09:34:00,72.0,62.0,-100.00,NW,310,9.0,18.0,72,0.00,,,-99.99,,2013-06-29 14:34:00,
2013-06-29 09:44:00,72.0,62.0,-100.00,NW,310,9.0,18.0,72,0.00,,,-99.99,,2013-06-29 14:44:00,
2013-06-29 09:53:00,71.0,62.0,-100.00,NNW,330,13.0,24.0,71,0.00,,,-99.99,,2013-06-29 14:53:00,
2013-06-29 10:01:00,71.0,62.0,-100.00,NNW,330,13.0,24.0,71,0.00,,,-99.99,,2013-06-29 15:01:00,
2013-06-29 10:11:00,72.0,62.0,-100.00,North,0,11.0,21.0,70,0.00,,,-99.99,,2013-06-29 15:11:00,
2013-06-29 10:22:00,72.0,62.0,-100.00,NNW,345,13.0,22.0,68,0.00,,,-99.99,,2013-06-29 15:22:00,
2013-06-29 10:33:00,72.0,62.0,-100.00,NNW,345,13.0,22.0,68,0.00,,,-99.99,,2013-06-29 15:33:00,
2013-06-29 10:42:00,72.0,61.0,-100.00,NW,315,11.0,26.0,69,0.00,,,-99.99,,2013-06-29 15:42:00,
2013-06-29 10:53:00,71.0,60.0,-100.00,NW,325,16.0,27.0,68,0.00,,,-99.99,,2013-06-29 15:53:00,
2013-06-29 11:02:00,71.0,60.0,-100.00,NW,325,16.0,27.0,68,0.00,,,-99.99,,2013-06-29 16:02:00,
2013-06-29 11:12:00,71.0,61.0,-100.00,NW,315,14.0,24.0,69,0.00,,,-99.99,,2013-06-29 16:12:00,
2013-06-29 11:22:00,72.0,61.0,-100.00,NW,315,14.0,22.0,68,0.00,,,-99.99,,2013-06-29 16:22:00,
2013-06-29 11:33:00,71.0,61.0,-100.00,North,0,9.0,21.0,69,0.00,,,-99.99,,2013-06-29 16:33:00,
2013-06-29 11:43:00,71.0,61.0,-100.00,NNW,340,10.0,22.0,69,0.00,,,-99.99,,2013-06-29 16:43:00,
2013-06-29 11:53:00,71.0,61.0,-100.00,NNW,340,12.0,25.0,69,0.00,,,-99.99,,2013-06-29 16:53:00,
2013-06-29 12:01:00,72.0,61.0,-100.00,NNW,335,9.0,17.0,69,0.00,,,-99.99,,2013-06-29 17:01:00,
2013-06-29 12:12:00,72.0,61.0,-100.00,NNW,335,9.0,17.0,69,0.00,,,-99.99,,2013-06-29 17:12:00,
2013-06-29 12:23:00,68.0,61.0,-100.00,North,0,11.0,26.0,78,0.00,,,-99.99,,2013-06-29 17:23:00,
2013-06-29 12:34:00,68.0,61.0,-100.00,North,0,11.0,26.0,78,0.00,,,-99.99,,2013-06-29 17:34:00,
2013-06-29 12:42:00,67.0,64.0,-100.00,NNW,335,10.0,22.0,88,0.00,,,-99.99,,2013-06-29 17:42:00,
2013-06-29 12:53:00,68.0,64.0,-100.00,NW,320,7.0,17.0,87,0.00,,,-99.99,,2013-06-29 17:53:00,
2013-06-29 13:01:00,70.0,65.0,-100.00,NNW,345,9.0,15.0,83,0.00,,,-99.99,,2013-06-29 18:01:00,
2013-06-29 13:12:00,73.0,62.0,-100.00,North,0,16.0,25.0,68,0.00,,,-99.99,,2013-06-29 18:12:00,
2013-06-29 13:22:00,74.0,61.0,-100.00,North,0,12.0,26.0,63,0.00,,,-99.99,,2013-06-29 18:22:00,
2013-06-29 13:34:00,74.0,61.0,-100.00,North,0,12.0,26.0,63,0.00,,,-99.99,,2013-06-29 18:34:00,
2013-06-29 13:43:00,73.0,60.0,-100.00,North,0,15.0,27.0,64,0.00,,,-99.99,,2013-06-29 18:43:00,
2013-06-29 14:01:00,74.0,61.0,-100.00,NNW,340,17.0,26.0,65,0.00,,,-99.99,,2013-06-29 19:01:00,
2013-06-29 14:12:00,74.0,61.0,-100.00,NNW,340,17.0,26.0,65,0.00,,,-99.99,,2013-06-29 19:12:00,
2013-06-29 14:22:00,73.0,62.0,-100.00,North,350,19.0,29.0,67,0.00,,,-99.99,,2013-06-29 19:22:00,
2013-06-29 14:34:00,73.0,62.0,-100.00,North,350,19.0,29.0,67,0.00,,,-99.99,,2013-06-29 19:34:00,
2013-06-29 14:43:00,73.0,61.0,-100.00,North,5,18.0,28.0,66,0.00,,,-99.99,,2013-06-29 19:43:00,
2013-06-29 14:54:00,73.0,61.0,-100.00,North,5,18.0,28.0,66,0.00,,,-99.99,,2013-06-29 19:54:00,
2013-06-29 15:11:00,73.0,59.0,-100.00,North,0,21.0,31.0,62,0.00,,,-99.99,,2013-06-29 20:11:00,
2013-06-29 15:23:00,73.0,60.0,-100.00,North,355,12.0,27.0,63,0.00,,,-99.99,,2013-06-29 20:23:00,
2013-06-29 15:33:00,73.0,60.0,-100.00,North,355,12.0,27.0,63,0.00,,,-99.99,,2013-06-29 20:33:00,
2013-06-29 15:43:00,73.0,60.0,-100.00,North,0,11.0,32.0,64,0.00,,,-99.99,,2013-06-29 20:43:00,
2013-06-29 15:52:00,72.0,60.0,-100.00,North,0,19.0,29.0,64,0.00,,,-99.99,,2013-06-29 20:52:00,
2013-06-29 16:02:00,72.0,60.0,-100.00,North,5,13.0,26.0,63,0.00,,,-99.99,,2013-06-29 21:02:00,
2013-06-29 16:11:00,73.0,60.0,-100.00,North,0,18.0,26.0,62,0.00,,,-99.99,,2013-06-29 21:11:00,
2013-06-29 16:22:00,73.0,60.0,-100.00,North,0,18.0,26.0,62,0.00,,,-99.99,,2013-06-29 21:22:00,
2013-06-29 16:32:00,72.0,60.0,-100.00,North,355,13.0,21.0,63,0.00,,,-99.99,,2013-06-29 21:32:00,
2013-06-29 16:42:00,73.0,60.0,-100.00,North,0,10.0,19.0,63,0.00,,,-99.99,,2013-06-29 21:42:00,
2013-06-29 16:52:00,74.0,60.0,-100.00,North,0,9.0,18.0,62,0.00,,,-99.99,,2013-06-29 21:52:00,
2013-06-29 17:01:00,74.0,60.0,-100.00,North,0,9.0,18.0,62,0.00,,,-99.99,,2013-06-29 22:01:00,
2013-06-29 17:11:00,74.0,59.0,-100.00,North,0,17.0,28.0,59,0.00,,,-99.99,,2013-06-29 22:11:00,
2013-06-29 17:21:00,74.0,59.0,-100.00,North,0,17.0,28.0,59,0.00,,,-99.99,,2013-06-29 22:21:00,
2013-06-29 17:33:00,75.0,58.0,-100.00,North,0,14.0,24.0,55,0.00,,,-99.99,,2013-06-29 22:33:00,
2013-06-29 17:43:00,75.0,58.0,-100.00,North,0,14.0,24.0,55,0.00,,,-99.99,,2013-06-29 22:43:00,
2013-06-29 17:53:00,75.0,59.0,-100.00,North,5,9.0,27.0,56,0.00,,,-99.99,,2013-06-29 22:53:00,
2013-06-29 18:02:00,75.0,59.0,-100.00,North,0,16.0,26.0,56,0.00,,,-99.99,,2013-06-29 23:02:00,
2013-06-29 18:12:00,75.0,59.0,-100.00,NNE,15,10.0,24.0,57,0.00,,,-99.99,,2013-06-29 23:12:00,
2013-06-29 18:23:00,74.0,56.0,-100.00,North,0,17.0,24.0,53,0.00,,,-99.99,,2013-06-29 23:23:00,
2013-06-29 18:34:00,74.0,57.0,-100.00,North,5,17.0,26.0,54,0.00,,,-99.99,,2013-06-29 23:34:00,
2013-06-29 18:43:00,73.0,56.0,-100.00,North,5,19.0,24.0,55,0.00,,,-99.99,,2013-06-29 23:43:00,
2013-06-29 18:52:00,73.0,56.0,-100.00,North,5,19.0,24.0,55,0.00,,,-99.99,,2013-06-29 23:52:00,
2013-06-29 19:02:00,73.0,57.0,-100.00,North,0,14.0,24.0,56,0.00,,,-99.99,,2013-06-30 00:02:00,
2013-06-29 19:22:00,72.0,57.0,-100.00,North,5,9.0,19.0,60,0.00,,,-99.99,,2013-06-30 00:22:00,
2013-06-29 19:33:00,72.0,57.0,-100.00,North,5,9.0,19.0,60,0.00,,,-99.99,,2013-06-30 00:33:00,
2013-06-29 19:43:00,70.0,57.0,-100.00,North,10,12.0,24.0,63,0.00,,,-99.99,,2013-06-30 00:43:00,
2013-06-29 19:52:00,70.0,57.0,-100.00,North,10,12.0,24.0,63,0.00,,,-99.99,,2013-06-30 00:52:00,
2013-06-29 20:01:00,70.0,57.0,-100.00,NNE,20,9.0,16.0,63,0.00,,,-99.99,,2013-06-30 01:01:00,
2013-06-29 20:11:00,69.0,57.0,-100.00,NNE,25,10.0,17.0,63,0.00,,,-99.99,,2013-06-30 01:11:00,
2013-06-29 20:22:00,69.0,57.0,-100.00,NNE,25,10.0,17.0,63,0.00,,,-99.99,,2013-06-30 01:22:00,
2013-06-29 20:33:00,69.0,57.0,-100.00,NNE,25,10.0,17.0,63,0.00,,,-99.99,,2013-06-30 01:33:00,
2013-06-29 20:44:00,69.0,57.0,-100.00,NNE,25,5.0,10.0,65,0.00,,,-99.99,,2013-06-30 01:44:00,
2013-06-29 20:53:00,69.0,57.0,-100.00,NNE,25,5.0,10.0,65,0.00,,,-99.99,,2013-06-30 01:53:00,
2013-06-29 21:02:00,69.0,57.0,-100.00,NNE,25,5.0,10.0,65,0.00,,,-99.99,,2013-06-30 02:02:00,
2013-06-29 21:11:00,68.0,57.0,-100.00,North,5,6.0,12.0,68,0.00,,,-99.99,,2013-06-30 02:11:00,
2013-06-29 21:23:00,68.0,57.0,-100.00,North,5,6.0,12.0,68,0.00,,,-99.99,,2013-06-30 02:23:00,
2013-06-29 21:34:00,68.0,57.0,-100.00,North,5,5.0,11.0,68,0.00,,,-99.99,,2013-06-30 02:34:00,
2013-06-29 21:43:00,68.0,57.0,-100.00,North,5,5.0,11.0,68,0.00,,,-99.99,,2013-06-30 02:43:00,
2013-06-29 21:53:00,68.0,57.0,-100.00,North,0,6.0,11.0,68,0.00,,,-99.99,,2013-06-30 02:53:00,
2013-06-29 22:01:00,68.0,57.0,-100.00,North,0,6.0,11.0,68,0.00,,,-99.99,,2013-06-30 03:01:00,
2013-06-29 22:12:00,68.0,57.0,-100.00,North,10,4.0,7.0,68,0.00,,,-99.99,,2013-06-30 03:12:00,
2013-06-29 22:23:00,68.0,57.0,-100.00,North,0,4.0,7.0,69,0.00,,,-99.99,,2013-06-30 03:23:00,
2013-06-29 22:33:00,68.0,58.0,-100.00,North,0,6.0,9.0,69,0.00,,,-99.99,,2013-06-30 03:33:00,
2013-06-29 22:43:00,68.0,58.0,-100.00,North,0,6.0,9.0,69,0.00,,,-99.99,,2013-06-30 03:43:00,
2013-06-29 23:01:00,68.0,57.0,-100.00,North,0,7.0,15.0,67,0.00,,,-99.99,,2013-06-30 04:01:00,
2013-06-29 23:12:00,68.0,57.0,-100.00,North,10,6.0,13.0,67,0.00,,,-99.99,,2013-06-30 04:12:00,
2013-06-29 23:22:00,67.0,57.0,-100.00,North,355,4.0,10.0,69,0.00,,,-99.99,,2013-06-30 04:22:00,
2013-06-29 23:33:00,67.0,57.0,-100.00,North,355,4.0,10.0,69,0.00,,,-99.99,,2013-06-30 04:33:00,
2013-06-29 23:43:00,66.0,57.0,-100.00,NNE,15,4.0,6.0,72,0.00,,,-99.99,,2013-06-30 04:43:00,
2013-06-29 23:53:00,66.0,57.0,-100.00,NNE,15,4.0,6.0,72,0.00,,,-99.99,,2013-06-30 04:53:00,